sensor_id;sensor_type;location;lat;lon;timestamp;pressure;altitude;pressure_sealevel;temperature;humidity
62655;BME280;48717;55.556;37.816;2022-10-31T00:00:41;97730.03;;;-1.21;71.55
62655;BME280;48717;55.556;37.816;2022-10-31T00:03:26;97712.81;;;-1.20;71.00
62655;BME280;48717;55.556;37.816;2022-10-31T00:06:17;97732.03;;;-0.99;70.63
62655;BME280;48717;55.556;37.816;2022-10-31T00:09:04;97737.22;;;-0.96;69.76
62655;BME280;48717;55.556;37.816;2022-10-31T00:12:07;97727.69;;;-1.02;69.66
62655;BME280;48717;55.556;37.816;2022-10-31T00:17:37;97735.44;;;-1.00;70.22
62655;BME280;48717;55.556;37.816;2022-10-31T00:23:21;97697.38;;;-1.11;69.67
62655;BME280;48717;55.556;37.816;2022-10-31T00:29:31;97711.38;;;-0.93;69.23
62655;BME280;48717;55.556;37.816;2022-10-31T00:32:15;97714.91;;;-0.85;69.14
62655;BME280;48717;55.556;37.816;2022-10-31T00:35:01;97704.53;;;-0.88;69.40
62655;BME280;48717;55.556;37.816;2022-10-31T00:37:46;97666.38;;;-1.08;69.20
62655;BME280;48717;55.556;37.816;2022-10-31T00:43:37;97660.50;;;-0.94;68.10
62655;BME280;48717;55.556;37.816;2022-10-31T00:46:22;97695.16;;;-0.76;67.47
62655;BME280;48717;55.556;37.816;2022-10-31T00:49:26;97699.53;;;-0.72;66.48
62655;BME280;48717;55.556;37.816;2022-10-31T00:51:55;97696.13;;;-0.68;67.79
62655;BME280;48717;55.556;37.816;2022-10-31T00:54:54;97699.53;;;-0.69;67.25
62655;BME280;48717;55.556;37.816;2022-10-31T00:57:58;97661.38;;;-0.92;66.68
62655;BME280;48717;55.556;37.816;2022-10-31T01:00:44;97682.22;;;-0.76;66.08
62655;BME280;48717;55.556;37.816;2022-10-31T01:03:49;97700.41;;;-0.70;66.64
62655;BME280;48717;55.556;37.816;2022-10-31T01:06:37;97696.13;;;-0.68;67.91
62655;BME280;48717;55.556;37.816;2022-10-31T01:09:40;97675.25;;;-0.84;67.21
62655;BME280;48717;55.556;37.816;2022-10-31T01:13:02;97701.25;;;-0.71;67.31
62655;BME280;48717;55.556;37.816;2022-10-31T01:15:30;97692.63;;;-0.70;66.92
62655;BME280;48717;55.556;37.816;2022-10-31T01:18:33;97706.47;;;-0.65;67.54
62655;BME280;48717;55.556;37.816;2022-10-31T01:21:07;97697.84;;;-0.67;66.82
62655;BME280;48717;55.556;37.816;2022-10-31T01:24:11;97697.84;;;-0.67;66.59
62655;BME280;48717;55.556;37.816;2022-10-31T01:26:57;97696.13;;;-0.65;66.23
62655;BME280;48717;55.556;37.816;2022-10-31T01:30:00;97699.63;;;-0.63;66.16
62655;BME280;48717;55.556;37.816;2022-10-31T01:32:29;97676.25;;;-0.68;66.67
62655;BME280;48717;55.556;37.816;2022-10-31T01:34:57;97688.41;;;-0.62;66.21
62655;BME280;48717;55.556;37.816;2022-10-31T01:37:24;97686.59;;;-0.69;66.46
62655;BME280;48717;55.556;37.816;2022-10-31T01:39:51;97679.63;;;-0.78;67.44
62655;BME280;48717;55.556;37.816;2022-10-31T01:42:37;97685.75;;;-0.68;67.62
62655;BME280;48717;55.556;37.816;2022-10-31T01:45:23;97680.44;;;-0.84;68.18
62655;BME280;48717;55.556;37.816;2022-10-31T01:48:13;97654.50;;;-0.90;68.15
62655;BME280;48717;55.556;37.816;2022-10-31T01:51:01;97677.91;;;-0.77;67.97
62655;BME280;48717;55.556;37.816;2022-10-31T01:53:32;97693.47;;;-0.73;68.57
62655;BME280;48717;55.556;37.816;2022-10-31T01:59:08;97651.75;;;-1.04;70.19
62655;BME280;48717;55.556;37.816;2022-10-31T02:04:44;97702.84;;;-0.86;71.60
62655;BME280;48717;55.556;37.816;2022-10-31T02:10:42;97704.44;;;-0.97;75.73
62655;BME280;48717;55.556;37.816;2022-10-31T02:13:11;97693.97;;;-1.08;77.10
62655;BME280;48717;55.556;37.816;2022-10-31T02:15:59;97706.94;;;-1.05;76.50
62655;BME280;48717;55.556;37.816;2022-10-31T02:18:29;97708.63;;;-1.07;78.00
62655;BME280;48717;55.556;37.816;2022-10-31T02:21:43;97727.56;;;-1.10;78.76
62655;BME280;48717;55.556;37.816;2022-10-31T02:33:39;97712.75;;;-1.23;82.14
62655;BME280;48717;55.556;37.816;2022-10-31T02:36:22;97687.53;;;-1.43;82.75
62655;BME280;48717;55.556;37.816;2022-10-31T02:45:45;97718.63;;;-1.37;84.82
62655;BME280;48717;55.556;37.816;2022-10-31T02:48:37;97689.06;;;-1.58;85.95
62655;BME280;48717;55.556;37.816;2022-10-31T02:51:07;97713.38;;;-1.45;86.83
62655;BME280;48717;55.556;37.816;2022-10-31T02:53:36;97713.31;;;-1.48;86.22
62655;BME280;48717;55.556;37.816;2022-10-31T02:56:24;97715.84;;;-1.52;86.78
62655;BME280;48717;55.556;37.816;2022-10-31T02:59:28;97720.06;;;-1.58;88.24
62655;BME280;48717;55.556;37.816;2022-10-31T03:08:06;97713.97;;;-1.63;89.98
62655;BME280;48717;55.556;37.816;2022-10-31T03:11:02;97715.63;;;-1.68;91.16
62655;BME280;48717;55.556;37.816;2022-10-31T03:13:51;97703.50;;;-1.72;91.33
62655;BME280;48717;55.556;37.816;2022-10-31T03:16:59;97700.97;;;-1.69;91.86
62655;BME280;48717;55.556;37.816;2022-10-31T03:22:39;97719.00;;;-1.72;92.28
62655;BME280;48717;55.556;37.816;2022-10-31T03:25:26;97715.56;;;-1.74;93.75
62655;BME280;48717;55.556;37.816;2022-10-31T03:28:14;97715.56;;;-1.71;93.26
62655;BME280;48717;55.556;37.816;2022-10-31T03:30:52;97707.03;;;-1.67;93.20
62655;BME280;48717;55.556;37.816;2022-10-31T03:33:39;97717.28;;;-1.73;92.85
62655;BME280;48717;55.556;37.816;2022-10-31T03:36:30;97700.75;;;-1.85;92.14
62655;BME280;48717;55.556;37.816;2022-10-31T03:42:44;97711.31;;;-1.69;91.77
62655;BME280;48717;55.556;37.816;2022-10-31T03:45:32;97727.75;;;-1.64;92.20
62655;BME280;48717;55.556;37.816;2022-10-31T03:48:03;97714.84;;;-1.62;91.40
62655;BME280;48717;55.556;37.816;2022-10-31T03:56:37;97707.88;;;-1.68;89.06
62655;BME280;48717;55.556;37.816;2022-10-31T04:03:03;97719.31;;;-1.50;87.41
62655;BME280;48717;55.556;37.816;2022-10-31T04:09:17;97736.59;;;-1.46;87.51
62655;BME280;48717;55.556;37.816;2022-10-31T04:11:50;97721.03;;;-1.49;87.77
62655;BME280;48717;55.556;37.816;2022-10-31T04:14:37;97714.06;;;-1.56;87.72
62655;BME280;48717;55.556;37.816;2022-10-31T04:17:44;97729.66;;;-1.50;88.30
62655;BME280;48717;55.556;37.816;2022-10-31T04:26:29;97726.03;;;-1.65;89.60
62655;BME280;48717;55.556;37.816;2022-10-31T04:28:57;97749.44;;;-1.54;88.87
62655;BME280;48717;55.556;37.816;2022-10-31T04:31:26;97745.25;;;-1.42;89.69
62655;BME280;48717;55.556;37.816;2022-10-31T04:34:12;97753.03;;;-1.44;89.70
62655;BME280;48717;55.556;37.816;2022-10-31T04:36:57;97720.84;;;-1.65;89.67
62655;BME280;48717;55.556;37.816;2022-10-31T04:39:25;97752.13;;;-1.46;90.44
62655;BME280;48717;55.556;37.816;2022-10-31T04:42:12;97738.16;;;-1.58;89.62
62655;BME280;48717;55.556;37.816;2022-10-31T04:44:58;97759.78;;;-1.54;88.72
62655;BME280;48717;55.556;37.816;2022-10-31T04:47:44;97769.28;;;-1.51;88.84
62655;BME280;48717;55.556;37.816;2022-10-31T04:50:29;97751.94;;;-1.59;89.04
62655;BME280;48717;55.556;37.816;2022-10-31T04:53:14;97767.63;;;-1.46;88.78
62655;BME280;48717;55.556;37.816;2022-10-31T04:56:31;97739.78;;;-1.66;90.23
62655;BME280;48717;55.556;37.816;2022-10-31T04:59:01;97771.97;;;-1.43;89.40
62655;BME280;48717;55.556;37.816;2022-10-31T05:04:44;97786.56;;;-1.47;88.49
62655;BME280;48717;55.556;37.816;2022-10-31T05:07:11;97779.72;;;-1.43;88.58
62655;BME280;48717;55.556;37.816;2022-10-31T05:09:38;97778.88;;;-1.42;89.47
62655;BME280;48717;55.556;37.816;2022-10-31T05:12:24;97779.69;;;-1.45;88.77
62655;BME280;48717;55.556;37.816;2022-10-31T05:15:29;97784.16;;;-1.35;88.21
62655;BME280;48717;55.556;37.816;2022-10-31T05:18:14;97781.59;;;-1.35;88.51
62655;BME280;48717;55.556;37.816;2022-10-31T05:21:19;97796.31;;;-1.27;87.51
62655;BME280;48717;55.556;37.816;2022-10-31T05:24:04;97790.31;;;-1.26;88.52
62655;BME280;48717;55.556;37.816;2022-10-31T05:26:33;97804.13;;;-1.24;88.67
62655;BME280;48717;55.556;37.816;2022-10-31T05:29:00;97768.47;;;-1.47;88.60
62655;BME280;48717;55.556;37.816;2022-10-31T05:31:45;97809.28;;;-1.24;88.84
62655;BME280;48717;55.556;37.816;2022-10-31T05:34:32;97807.59;;;-1.21;87.79
62655;BME280;48717;55.556;37.816;2022-10-31T05:37:17;97793.59;;;-1.37;87.78
62655;BME280;48717;55.556;37.816;2022-10-31T05:39:44;97811.94;;;-1.18;87.98
62655;BME280;48717;55.556;37.816;2022-10-31T05:42:29;97814.53;;;-1.18;87.98
62655;BME280;48717;55.556;37.816;2022-10-31T05:45:16;97824.97;;;-1.12;85.65
62655;BME280;48717;55.556;37.816;2022-10-31T05:48:02;97797.09;;;-1.35;85.21
62655;BME280;48717;55.556;37.816;2022-10-31T05:51:24;97825.94;;;-1.05;85.75
62655;BME280;48717;55.556;37.816;2022-10-31T05:53:51;97833.63;;;-1.10;86.33
62655;BME280;48717;55.556;37.816;2022-10-31T05:59:23;97846.53;;;-1.11;86.27
62655;BME280;48717;55.556;37.816;2022-10-31T06:02:08;97845.72;;;-1.09;86.57
62655;BME280;48717;55.556;37.816;2022-10-31T06:04:54;97845.69;;;-1.12;86.89
62655;BME280;48717;55.556;37.816;2022-10-31T06:07:57;97873.63;;;-0.86;85.52
62655;BME280;48717;55.556;37.816;2022-10-31T06:10:43;97866.75;;;-0.84;86.14
62655;BME280;48717;55.556;37.816;2022-10-31T06:13:29;97859.78;;;-0.88;85.34
62655;BME280;48717;55.556;37.816;2022-10-31T06:16:02;97891.88;;;-0.75;86.17
62655;BME280;48717;55.556;37.816;2022-10-31T06:18:34;97873.56;;;-0.89;85.54
62655;BME280;48717;55.556;37.816;2022-10-31T06:24:07;97881.38;;;-0.87;85.49
62655;BME280;48717;55.556;37.816;2022-10-31T06:26:51;97904.03;;;-0.68;85.25
62655;BME280;48717;55.556;37.816;2022-10-31T06:29:19;97908.38;;;-0.65;85.22
62655;BME280;48717;55.556;37.816;2022-10-31T06:34:55;97899.75;;;-0.67;86.63
62655;BME280;48717;55.556;37.816;2022-10-31T06:37:41;97931.00;;;-0.51;86.76
62655;BME280;48717;55.556;37.816;2022-10-31T06:40:30;97912.75;;;-0.64;86.07
62655;BME280;48717;55.556;37.816;2022-10-31T06:43:16;97897.97;;;-0.71;86.73
62655;BME280;48717;55.556;37.816;2022-10-31T06:46:03;97918.75;;;-0.63;87.33
62655;BME280;48717;55.556;37.816;2022-10-31T06:49:24;97943.94;;;-0.51;87.37
62655;BME280;48717;55.556;37.816;2022-10-31T06:52:12;97922.16;;;-0.68;87.38
62655;BME280;48717;55.556;37.816;2022-10-31T06:55:16;97949.28;;;-0.42;88.06
62655;BME280;48717;55.556;37.816;2022-10-31T07:00:54;97973.50;;;-0.34;88.61
62655;BME280;48717;55.556;37.816;2022-10-31T07:03:22;97983.06;;;-0.30;88.64
62655;BME280;48717;55.556;37.816;2022-10-31T07:05:50;97992.66;;;-0.24;88.54
62655;BME280;48717;55.556;37.816;2022-10-31T07:08:18;97988.38;;;-0.19;87.15
62655;BME280;48717;55.556;37.816;2022-10-31T07:11:04;97995.41;;;-0.11;87.51
62655;BME280;48717;55.556;37.816;2022-10-31T07:14:07;97994.66;;;-0.01;88.29
62655;BME280;48717;55.556;37.816;2022-10-31T07:16:34;98006.00;;;0.09;87.02
62655;BME280;48717;55.556;37.816;2022-10-31T07:19:03;98004.31;;;0.14;87.02
62655;BME280;48717;55.556;37.816;2022-10-31T07:21:30;97999.09;;;0.09;86.81
62655;BME280;48717;55.556;37.816;2022-10-31T07:23:57;98017.38;;;0.20;86.36
62655;BME280;48717;55.556;37.816;2022-10-31T07:26:47;97985.22;;;0.06;86.15
62655;BME280;48717;55.556;37.816;2022-10-31T07:29:33;98016.56;;;0.24;85.03
62655;BME280;48717;55.556;37.816;2022-10-31T07:32:43;98042.66;;;0.40;85.99
62655;BME280;48717;55.556;37.816;2022-10-31T07:35:16;98043.47;;;0.37;84.87
62655;BME280;48717;55.556;37.816;2022-10-31T07:40:52;98071.97;;;0.36;85.29
62655;BME280;48717;55.556;37.816;2022-10-31T07:43:20;98085.81;;;0.35;84.80
62655;BME280;48717;55.556;37.816;2022-10-31T07:46:08;98080.63;;;0.35;85.43
62655;BME280;48717;55.556;37.816;2022-10-31T07:49:21;98097.97;;;0.39;85.73
62655;BME280;48717;55.556;37.816;2022-10-31T07:52:35;98071.94;;;0.33;85.37
62655;BME280;48717;55.556;37.816;2022-10-31T07:55:38;98120.47;;;0.43;86.46
62655;BME280;48717;55.556;37.816;2022-10-31T07:58:09;98127.38;;;0.43;86.28
62655;BME280;48717;55.556;37.816;2022-10-31T08:00:40;98097.88;;;0.33;86.40
62655;BME280;48717;55.556;37.816;2022-10-31T08:03:15;98106.91;;;0.66;85.25
62655;BME280;48717;55.556;37.816;2022-10-31T08:06:02;98133.31;;;1.10;84.02
62655;BME280;48717;55.556;37.816;2022-10-31T08:08:52;98106.97;;;1.72;81.68
62655;BME280;48717;55.556;37.816;2022-10-31T08:11:38;98137.69;;;2.32;76.90
62655;BME280;48717;55.556;37.816;2022-10-31T08:14:06;98123.16;;;2.99;73.80
62655;BME280;48717;55.556;37.816;2022-10-31T08:19:58;98136.09;;;4.51;66.60
62655;BME280;48717;55.556;37.816;2022-10-31T08:23:02;98141.16;;;4.88;63.45
62655;BME280;48717;55.556;37.816;2022-10-31T08:25:33;98159.34;;;5.08;62.09
62655;BME280;48717;55.556;37.816;2022-10-31T08:28:19;98118.53;;;4.84;61.94
62655;BME280;48717;55.556;37.816;2022-10-31T08:30:49;98090.91;;;4.36;61.03
62655;BME280;48717;55.556;37.816;2022-10-31T08:33:34;98180.50;;;4.38;62.12
62655;BME280;48717;55.556;37.816;2022-10-31T08:36:21;98140.59;;;3.61;62.57
62655;BME280;48717;55.556;37.816;2022-10-31T08:38:48;98162.28;;;3.23;65.12
62655;BME280;48717;55.556;37.816;2022-10-31T08:41:53;98190.84;;;2.96;66.43
62655;BME280;48717;55.556;37.816;2022-10-31T08:44:20;98174.19;;;2.52;67.59
62655;BME280;48717;55.556;37.816;2022-10-31T08:46:47;98181.06;;;2.41;68.97
62655;BME280;48717;55.556;37.816;2022-10-31T08:49:15;98207.91;;;2.37;71.17
62655;BME280;48717;55.556;37.816;2022-10-31T08:51:59;98170.44;;;2.03;73.16
62655;BME280;48717;55.556;37.816;2022-10-31T08:54:46;98226.03;;;2.19;74.43
62655;BME280;48717;55.556;37.816;2022-10-31T08:57:32;98236.41;;;2.18;74.92
62655;BME280;48717;55.556;37.816;2022-10-31T09:00:18;98238.16;;;2.19;76.01
62655;BME280;48717;55.556;37.816;2022-10-31T09:02:57;98246.78;;;2.15;77.31
62655;BME280;48717;55.556;37.816;2022-10-31T09:05:28;98197.97;;;1.79;77.38
62655;BME280;48717;55.556;37.816;2022-10-31T09:08:13;98243.34;;;2.16;76.06
62655;BME280;48717;55.556;37.816;2022-10-31T09:11:20;98249.78;;;2.77;75.07
62655;BME280;48717;55.556;37.816;2022-10-31T09:14:25;98238.78;;;3.53;70.02
62655;BME280;48717;55.556;37.816;2022-10-31T09:23:32;98249.16;;;3.37;68.64
62655;BME280;48717;55.556;37.816;2022-10-31T09:26:18;98255.16;;;3.11;68.44
62655;BME280;48717;55.556;37.816;2022-10-31T09:29:04;98239.28;;;2.55;68.15
62655;BME280;48717;55.556;37.816;2022-10-31T09:32:05;98270.47;;;2.51;69.08
62655;BME280;48717;55.556;37.816;2022-10-31T09:34:56;98272.06;;;2.33;69.44
62655;BME280;48717;55.556;37.816;2022-10-31T09:37:42;98286.69;;;2.17;68.42
62655;BME280;48717;55.556;37.816;2022-10-31T09:40:54;98290.16;;;2.19;66.98
62655;BME280;48717;55.556;37.816;2022-10-31T09:44:12;98282.47;;;2.31;67.81
62655;BME280;48717;55.556;37.816;2022-10-31T09:52:24;98299.13;;;2.55;66.75
62655;BME280;48717;55.556;37.816;2022-10-31T09:55:44;98273.00;;;2.43;66.84
62655;BME280;48717;55.556;37.816;2022-10-31T09:58:34;98307.81;;;2.57;67.40
62655;BME280;48717;55.556;37.816;2022-10-31T10:01:35;98319.91;;;2.52;66.86
62655;BME280;48717;55.556;37.816;2022-10-31T10:05:13;98300.56;;;2.16;68.36
62655;BME280;48717;55.556;37.816;2022-10-31T10:14:14;98335.41;;;2.40;66.53
62655;BME280;48717;55.556;37.816;2022-10-31T10:17:15;98355.41;;;2.45;65.79
62655;BME280;48717;55.556;37.816;2022-10-31T10:25:37;98363.19;;;2.42;67.34
62655;BME280;48717;55.556;37.816;2022-10-31T10:31:55;98346.50;;;2.17;67.24
62655;BME280;48717;55.556;37.816;2022-10-31T10:34:54;98390.09;;;2.43;66.73
62655;BME280;48717;55.556;37.816;2022-10-31T10:37:30;98383.91;;;2.31;66.97
62655;BME280;48717;55.556;37.816;2022-10-31T10:43:00;98397.03;;;2.44;68.12
62655;BME280;48717;55.556;37.816;2022-10-31T10:49:52;98416.91;;;2.35;70.56
62655;BME280;48717;55.556;37.816;2022-10-31T10:52:41;98416.97;;;2.40;70.32
62655;BME280;48717;55.556;37.816;2022-10-31T10:56:10;98416.13;;;2.44;70.59
62655;BME280;48717;55.556;37.816;2022-10-31T10:59:08;98418.72;;;2.43;70.54
62655;BME280;48717;55.556;37.816;2022-10-31T11:01:54;98403.03;;;2.37;71.97
62655;BME280;48717;55.556;37.816;2022-10-31T11:07:15;98403.03;;;2.37;71.57
62655;BME280;48717;55.556;37.816;2022-10-31T11:10:05;98374.34;;;2.29;70.90
62655;BME280;48717;55.556;37.816;2022-10-31T11:12:39;98380.44;;;2.32;70.22
62655;BME280;48717;55.556;37.816;2022-10-31T11:16:07;98396.16;;;2.45;69.97
62655;BME280;48717;55.556;37.816;2022-10-31T11:18:44;98390.75;;;2.20;69.93
62655;BME280;48717;55.556;37.816;2022-10-31T11:21:25;98400.31;;;2.26;69.28
62655;BME280;48717;55.556;37.816;2022-10-31T11:24:18;98401.19;;;2.26;70.04
62655;BME280;48717;55.556;37.816;2022-10-31T11:27:31;98394.97;;;2.10;69.16
62655;BME280;48717;55.556;37.816;2022-10-31T11:30:06;98369.75;;;1.98;69.12
62655;BME280;48717;55.556;37.816;2022-10-31T11:32:52;98411.47;;;2.14;70.12
62655;BME280;48717;55.556;37.816;2022-10-31T11:35:21;98414.88;;;2.06;70.49
62655;BME280;48717;55.556;37.816;2022-10-31T11:37:50;98429.63;;;2.07;71.09
62655;BME280;48717;55.556;37.816;2022-10-31T11:40:37;98425.16;;;1.97;72.14
62655;BME280;48717;55.556;37.816;2022-10-31T11:49:18;98395.38;;;1.67;74.09
62655;BME280;48717;55.556;37.816;2022-10-31T11:51:51;98404.09;;;1.72;74.51
62655;BME280;48717;55.556;37.816;2022-10-31T11:57:50;98415.31;;;1.68;74.25
62655;BME280;48717;55.556;37.816;2022-10-31T12:03:51;98415.97;;;1.51;73.93
62655;BME280;48717;55.556;37.816;2022-10-31T12:09:28;98428.03;;;1.46;73.50
62655;BME280;48717;55.556;37.816;2022-10-31T12:12:22;98452.53;;;1.65;74.22
62655;BME280;48717;55.556;37.816;2022-10-31T12:18:32;98449.91;;;1.64;75.02
62655;BME280;48717;55.556;37.816;2022-10-31T12:22:10;98466.34;;;1.61;73.75
62655;BME280;48717;55.556;37.816;2022-10-31T12:28:04;98434.91;;;1.44;74.94
62655;BME280;48717;55.556;37.816;2022-10-31T12:31:17;98473.38;;;1.70;75.18
62655;BME280;48717;55.556;37.816;2022-10-31T12:47:03;98482.94;;;1.74;76.35
62655;BME280;48717;55.556;37.816;2022-10-31T12:53:00;98475.81;;;1.59;79.34
62655;BME280;48717;55.556;37.816;2022-10-31T12:58:33;98424.09;;;1.13;82.50
62655;BME280;48717;55.556;37.816;2022-10-31T13:01:26;98485.06;;;1.37;82.44
62655;BME280;48717;55.556;37.816;2022-10-31T13:10:52;98451.91;;;1.20;82.58
62655;BME280;48717;55.556;37.816;2022-10-31T13:13:42;98500.63;;;1.37;82.66
62655;BME280;48717;55.556;37.816;2022-10-31T13:16:34;98486.75;;;1.35;83.15
62655;BME280;48717;55.556;37.816;2022-10-31T13:22:29;98498.09;;;1.40;82.92
62655;BME280;48717;55.556;37.816;2022-10-31T13:28:31;98491.28;;;1.50;82.29
62655;BME280;48717;55.556;37.816;2022-10-31T13:31:02;98497.31;;;1.47;81.48
62655;BME280;48717;55.556;37.816;2022-10-31T13:34:02;98500.81;;;1.49;82.38
62655;BME280;48717;55.556;37.816;2022-10-31T13:42:53;98494.13;;;1.67;80.75
62655;BME280;48717;55.556;37.816;2022-10-31T13:45:23;98515.91;;;1.78;80.47
62655;BME280;48717;55.556;37.816;2022-10-31T13:51:08;98504.41;;;1.58;78.85
62655;BME280;48717;55.556;37.816;2022-10-31T13:56:23;98529.06;;;1.89;79.34
62655;BME280;48717;55.556;37.816;2022-10-31T13:58:59;98532.72;;;2.02;79.72
62655;BME280;48717;55.556;37.816;2022-10-31T14:02:16;98515.31;;;1.97;78.42
62655;BME280;48717;55.556;37.816;2022-10-31T14:04:48;98525.78;;;2.04;79.48
62655;BME280;48717;55.556;37.816;2022-10-31T14:07:17;98527.53;;;2.05;78.75
62655;BME280;48717;55.556;37.816;2022-10-31T14:10:27;98536.13;;;1.98;79.11
62655;BME280;48717;55.556;37.816;2022-10-31T14:13:27;98531.81;;;2.02;79.86
62655;BME280;48717;55.556;37.816;2022-10-31T14:16:25;98533.50;;;1.97;79.85
62655;BME280;48717;55.556;37.816;2022-10-31T14:22:20;98511.53;;;1.74;79.77
62655;BME280;48717;55.556;37.816;2022-10-31T14:25:43;98551.59;;;1.89;79.86
62655;BME280;48717;55.556;37.816;2022-10-31T14:28:34;98558.34;;;1.76;79.76
62655;BME280;48717;55.556;37.816;2022-10-31T14:31:37;98574.03;;;1.83;79.67
62655;BME280;48717;55.556;37.816;2022-10-31T14:52:36;98611.47;;;1.95;78.80
62655;BME280;48717;55.556;37.816;2022-10-31T14:55:24;98614.13;;;1.98;79.34
62655;BME280;48717;55.556;37.816;2022-10-31T14:57:54;98612.34;;;1.97;79.48
62655;BME280;48717;55.556;37.816;2022-10-31T15:00:42;98596.59;;;1.85;79.68
62655;BME280;48717;55.556;37.816;2022-10-31T15:03:20;98585.25;;;1.79;79.57
62655;BME280;48717;55.556;37.816;2022-10-31T15:05:56;98582.66;;;1.79;78.91
62655;BME280;48717;55.556;37.816;2022-10-31T15:08:45;98586.94;;;1.76;78.22
62655;BME280;48717;55.556;37.816;2022-10-31T15:11:21;98607.97;;;1.93;78.38
62655;BME280;48717;55.556;37.816;2022-10-31T15:17:10;98589.59;;;1.79;78.54
62655;BME280;48717;55.556;37.816;2022-10-31T15:19:56;98626.16;;;1.93;78.58
62655;BME280;48717;55.556;37.816;2022-10-31T15:22:31;98632.25;;;1.93;79.24
62655;BME280;48717;55.556;37.816;2022-10-31T15:25:21;98619.88;;;1.78;78.45
62655;BME280;48717;55.556;37.816;2022-10-31T15:27:51;98630.41;;;1.88;77.51
62655;BME280;48717;55.556;37.816;2022-10-31T15:33:21;98628.53;;;1.77;78.07
62655;BME280;48717;55.556;37.816;2022-10-31T15:35:57;98638.13;;;1.80;77.93
62655;BME280;48717;55.556;37.816;2022-10-31T15:38:43;98661.66;;;1.89;78.18
62655;BME280;48717;55.556;37.816;2022-10-31T15:41:57;98668.63;;;1.93;77.61
62655;BME280;48717;55.556;37.816;2022-10-31T15:44:34;98663.38;;;1.89;78.46
62655;BME280;48717;55.556;37.816;2022-10-31T15:47:22;98638.66;;;1.59;77.80
62655;BME280;48717;55.556;37.816;2022-10-31T15:49:55;98680.69;;;1.88;78.14
62655;BME280;48717;55.556;37.816;2022-10-31T15:53:00;98687.59;;;1.88;78.47
62655;BME280;48717;55.556;37.816;2022-10-31T15:55:30;98636.09;;;1.60;78.52
62655;BME280;48717;55.556;37.816;2022-10-31T16:01:59;98690.13;;;1.81;78.74
62655;BME280;48717;55.556;37.816;2022-10-31T16:04:59;98696.22;;;1.83;77.79
62655;BME280;48717;55.556;37.816;2022-10-31T16:07:50;98682.38;;;1.85;78.58
62655;BME280;48717;55.556;37.816;2022-10-31T16:10:23;98672.47;;;1.60;77.90
62655;BME280;48717;55.556;37.816;2022-10-31T16:12:52;98669.72;;;1.52;78.09
62655;BME280;48717;55.556;37.816;2022-10-31T16:15:51;98722.16;;;1.79;78.60
62655;BME280;48717;55.556;37.816;2022-10-31T16:18:54;98719.50;;;1.77;78.44
62655;BME280;48717;55.556;37.816;2022-10-31T16:28:25;98719.44;;;1.71;78.63
62655;BME280;48717;55.556;37.816;2022-10-31T16:30:59;98731.53;;;1.71;78.44
62655;BME280;48717;55.556;37.816;2022-10-31T16:33:32;98750.59;;;1.71;79.70
62655;BME280;48717;55.556;37.816;2022-10-31T16:39:03;98717.28;;;1.48;79.37
62655;BME280;48717;55.556;37.816;2022-10-31T16:41:40;98745.13;;;1.55;79.86
62655;BME280;48717;55.556;37.816;2022-10-31T16:44:26;98710.97;;;1.34;80.43
62655;BME280;48717;55.556;37.816;2022-10-31T16:47:23;98738.78;;;1.39;80.08
62655;BME280;48717;55.556;37.816;2022-10-31T16:49:55;98751.91;;;1.47;80.10
62655;BME280;48717;55.556;37.816;2022-10-31T16:52:45;98758.81;;;1.45;79.97
62655;BME280;48717;55.556;37.816;2022-10-31T16:55:52;98764.81;;;1.44;80.31
62655;BME280;48717;55.556;37.816;2022-10-31T16:58:39;98755.28;;;1.43;80.27
62655;BME280;48717;55.556;37.816;2022-10-31T17:01:06;98763.94;;;1.42;80.47
62655;BME280;48717;55.556;37.816;2022-10-31T17:03:35;98711.47;;;1.14;80.70
62655;BME280;48717;55.556;37.816;2022-10-31T17:06:19;98762.22;;;1.44;80.46
62655;BME280;48717;55.556;37.816;2022-10-31T17:09:05;98728.88;;;1.18;80.24
62655;BME280;48717;55.556;37.816;2022-10-31T17:11:33;98721.13;;;1.21;79.93
62655;BME280;48717;55.556;37.816;2022-10-31T17:14:19;98763.13;;;1.45;79.99
62655;BME280;48717;55.556;37.816;2022-10-31T17:17:07;98770.03;;;1.42;80.37
62655;BME280;48717;55.556;37.816;2022-10-31T17:19:36;98764.66;;;1.35;80.30
62655;BME280;48717;55.556;37.816;2022-10-31T17:22:22;98755.00;;;1.27;80.63
62655;BME280;48717;55.556;37.816;2022-10-31T17:24:56;98765.50;;;1.34;80.37
62655;BME280;48717;55.556;37.816;2022-10-31T17:27:40;98778.56;;;1.37;80.91
62655;BME280;48717;55.556;37.816;2022-10-31T17:30:13;98783.81;;;1.41;80.27
62655;BME280;48717;55.556;37.816;2022-10-31T17:32:45;98765.41;;;1.27;80.29
62655;BME280;48717;55.556;37.816;2022-10-31T17:35:14;98762.81;;;1.27;80.21
62655;BME280;48717;55.556;37.816;2022-10-31T17:38:18;98803.75;;;1.41;80.58
62655;BME280;48717;55.556;37.816;2022-10-31T17:41:08;98797.75;;;1.43;80.70
62655;BME280;48717;55.556;37.816;2022-10-31T17:43:43;98800.31;;;1.42;80.25
62655;BME280;48717;55.556;37.816;2022-10-31T17:46:47;98795.94;;;1.39;79.97
62655;BME280;48717;55.556;37.816;2022-10-31T17:49:16;98788.03;;;1.35;79.73
62655;BME280;48717;55.556;37.816;2022-10-31T17:52:02;98794.91;;;1.31;80.10
62655;BME280;48717;55.556;37.816;2022-10-31T17:54:29;98809.06;;;1.47;79.38
62655;BME280;48717;55.556;37.816;2022-10-31T17:57:33;98811.53;;;1.41;80.14
62655;BME280;48717;55.556;37.816;2022-10-31T18:00:19;98818.66;;;1.51;79.25
62655;BME280;48717;55.556;37.816;2022-10-31T18:03:26;98770.28;;;1.12;79.20
62655;BME280;48717;55.556;37.816;2022-10-31T18:09:04;98821.84;;;1.36;79.71
62655;BME280;48717;55.556;37.816;2022-10-31T18:11:48;98793.94;;;1.26;79.75
62655;BME280;48717;55.556;37.816;2022-10-31T18:14:35;98832.34;;;1.41;79.70
62655;BME280;48717;55.556;37.816;2022-10-31T18:17:04;98827.03;;;1.36;79.39
62655;BME280;48717;55.556;37.816;2022-10-31T18:19:33;98859.28;;;1.46;79.53
62655;BME280;48717;55.556;37.816;2022-10-31T18:22:01;98832.97;;;1.30;79.53
62655;BME280;48717;55.556;37.816;2022-10-31T18:24:46;98832.09;;;1.30;79.93
62655;BME280;48717;55.556;37.816;2022-10-31T18:30:00;98820.72;;;1.23;79.49